エカテリンブルク の空港の天気 - METARとTAF

コルツォヴォ空港 ( USSS / SVX ) - ロシア エカテリンブルク
飛行場実況気象(Metar)
観測時間12/14 11:00 YEKT (12/14 06:00 UTC)
風向・風速南 1m/s
視程50m
天気現象氷霧
全天を覆う雲 鉛直視程 30m
気温-12℃
湿度92%
気圧1030hPa
METARUSSS 140600Z 19001MPS 0050 R26R/M0200N FZFG VV001 M12/M13 Q1030 R26R/290038 NOSIG RMK QBB050 QFE751/1002
過去の天気等 Google飛行場航空写真 Wunderground天気予報

過去48時間のMETAR

飛行場予報(TAF)
発表時間: 12/14 10:44 YEKT (12/14 05:44 UTC)
予報対象時間: 14日11時 YEKT ~ 15日11時 YEKT
風向・風速南南東 3m/s
視程300m
天気現象氷霧
全天を覆う雲 鉛直視程 60m
14日12時 YEKT ~ 14日14時 YEKT に徐々に
視程3100m
天気現象もや
全天の8割程度の雲 雲底高度 340m
TAF AMD USSS 140544Z 1406/1506 15003MPS 0300 FZFG VV002
BECMG 1407/1409 3100 BR BKN011